createdAt,value
2023-08-05T00:02:00.873Z,52.06
2023-08-05T00:04:27.915Z,52.09
2023-08-05T00:06:55.008Z,52.37
2023-08-05T00:09:22.132Z,52.22
2023-08-05T00:11:49.214Z,52.42
2023-08-05T00:14:16.309Z,52.39
2023-08-05T00:16:43.420Z,52.24
2023-08-05T00:19:10.603Z,52.29
2023-08-05T00:21:37.822Z,52.12
2023-08-05T00:24:05.084Z,52.27
2023-08-05T00:26:32.300Z,52.36
2023-08-05T00:28:59.406Z,52.00
2023-08-05T00:31:27.275Z,52.14
2023-08-05T00:33:54.345Z,52.08
2023-08-05T00:36:21.441Z,52.16
2023-08-05T00:38:48.490Z,52.24
2023-08-05T00:41:15.535Z,52.30
2023-08-05T00:43:42.612Z,52.56
2023-08-05T00:46:10.989Z,52.45
2023-08-05T00:48:38.857Z,52.60
2023-08-05T00:51:09.387Z,52.45
2023-08-05T00:53:37.754Z,52.65
2023-08-05T00:56:05.117Z,53.07
2023-08-05T00:58:33.716Z,52.90
2023-08-05T01:01:01.148Z,53.38
2023-08-05T01:03:28.271Z,53.72
2023-08-05T01:05:56.267Z,53.86
2023-08-05T01:08:24.215Z,53.79
2023-08-05T01:10:51.677Z,53.61
2023-08-05T01:13:18.752Z,53.15
2023-08-05T01:15:45.940Z,53.33
2023-08-05T01:18:15.475Z,53.32
2023-08-05T01:20:52.081Z,53.28
2023-08-05T01:23:31.143Z,53.38
2023-08-05T01:25:59.826Z,53.47
2023-08-05T01:28:27.493Z,53.25
2023-08-05T01:30:57.899Z,53.24
2023-08-05T01:33:25.678Z,53.47
2023-08-05T01:35:52.794Z,53.69
2023-08-05T01:38:19.943Z,53.41
2023-08-05T01:40:47.149Z,53.67
2023-08-05T01:43:14.380Z,53.60
2023-08-05T01:45:41.437Z,54.08
2023-08-05T01:48:08.639Z,53.88
2023-08-05T01:50:37.192Z,53.76
2023-08-05T01:53:04.325Z,53.85
2023-08-05T01:55:31.442Z,53.83
2023-08-05T01:57:58.612Z,53.83
2023-08-05T02:00:25.845Z,53.92
2023-08-05T02:02:53.038Z,54.24
2023-08-05T02:05:20.371Z,54.03
2023-08-05T02:07:47.536Z,54.04
2023-08-05T02:10:14.762Z,54.34
2023-08-05T02:12:41.946Z,54.40
2023-08-05T02:15:09.764Z,54.55
2023-08-05T02:17:36.864Z,54.66
2023-08-05T02:20:05.474Z,54.72
2023-08-05T02:22:32.580Z,54.24
2023-08-05T02:25:00.628Z,54.40
2023-08-05T02:27:27.923Z,54.22
2023-08-05T02:29:55.065Z,54.24
2023-08-05T02:32:22.490Z,53.47
2023-08-05T02:34:49.570Z,53.79
2023-08-05T02:37:16.666Z,53.61
2023-08-05T02:39:43.792Z,54.01
2023-08-05T02:42:13.363Z,53.88
2023-08-05T02:44:40.453Z,54.37
2023-08-05T02:47:07.586Z,54.40
2023-08-05T02:49:34.831Z,54.23
2023-08-05T02:52:01.884Z,54.08
2023-08-05T02:54:29.062Z,54.40
2023-08-05T02:56:56.178Z,54.50
2023-08-05T02:59:23.490Z,54.69
2023-08-05T03:01:50.595Z,54.64
2023-08-05T03:04:17.813Z,54.72
2023-08-05T03:06:45.060Z,54.68
2023-08-05T03:09:12.296Z,54.61
2023-08-05T03:11:39.743Z,54.62
2023-08-05T03:14:08.193Z,54.19
2023-08-05T03:16:35.375Z,54.59
2023-08-05T03:19:06.163Z,54.71
2023-08-05T03:21:33.742Z,54.44
2023-08-05T03:24:02.235Z,54.41
2023-08-05T03:26:31.293Z,54.17
2023-08-05T03:29:03.700Z,53.91
2023-08-05T03:31:31.914Z,53.98
2023-08-05T03:34:00.958Z,53.79
2023-08-05T03:36:30.874Z,53.50
2023-08-05T03:38:57.980Z,53.58
2023-08-05T03:41:25.097Z,52.88
2023-08-05T03:43:52.210Z,53.14
2023-08-05T03:46:19.624Z,52.86
2023-08-05T03:48:46.823Z,53.05
2023-08-05T03:51:15.572Z,52.94
2023-08-05T03:53:43.200Z,52.68
2023-08-05T03:56:10.583Z,53.15
2023-08-05T03:58:38.579Z,52.83
2023-08-05T04:01:08.348Z,52.65
2023-08-05T04:03:38.038Z,52.56
2023-08-05T04:06:06.752Z,52.43
2023-08-05T04:08:33.842Z,52.80
2023-08-05T04:11:02.229Z,53.05
2023-08-05T04:13:30.338Z,53.11
2023-08-05T04:16:00.339Z,52.85
2023-08-05T04:18:29.142Z,53.00
2023-08-05T04:20:57.313Z,52.66
2023-08-05T04:23:26.246Z,52.87
2023-08-05T04:25:54.121Z,52.87
2023-08-05T04:28:21.430Z,52.04
2023-08-05T04:30:49.778Z,51.90
2023-08-05T04:33:17.306Z,52.02
2023-08-05T04:35:51.309Z,51.45
2023-08-05T04:38:18.868Z,51.67
2023-08-05T04:40:46.274Z,51.54
2023-08-05T04:43:14.129Z,51.59
2023-08-05T04:45:41.719Z,51.40
2023-08-05T04:48:09.153Z,50.81
2023-08-05T04:50:39.782Z,50.62
2023-08-05T04:53:08.090Z,50.13
2023-08-05T04:55:35.291Z,50.21
2023-08-05T04:58:04.091Z,49.94
2023-08-05T05:00:31.146Z,50.24
2023-08-05T05:02:58.374Z,49.63
2023-08-05T05:05:26.329Z,49.19
2023-08-05T05:07:53.629Z,49.32
2023-08-05T05:10:20.721Z,48.87
2023-08-05T05:12:49.706Z,48.55
2023-08-05T05:15:16.935Z,48.39
2023-08-05T05:17:44.157Z,47.70
2023-08-05T05:20:12.329Z,47.64
2023-08-05T05:22:39.436Z,48.11
2023-08-05T05:25:07.405Z,47.31
2023-08-05T05:27:36.171Z,47.49
2023-08-05T05:30:04.332Z,47.57
2023-08-05T05:32:31.579Z,47.77
2023-08-05T05:34:58.662Z,47.75
2023-08-05T05:37:25.768Z,48.40
2023-08-05T05:39:52.829Z,48.35
2023-08-05T05:42:20.006Z,47.62
2023-08-05T05:44:53.473Z,46.93
2023-08-05T05:47:21.498Z,46.84
2023-08-05T05:49:49.062Z,47.86
2023-08-05T05:52:17.797Z,47.42
2023-08-05T05:54:45.331Z,47.39
2023-08-05T05:57:12.518Z,46.81
2023-08-05T05:59:40.466Z,46.09
2023-08-05T06:02:10.775Z,46.05
2023-08-05T06:04:38.233Z,45.55
2023-08-05T06:07:05.782Z,45.37
2023-08-05T06:09:33.182Z,45.23
2023-08-05T06:12:00.669Z,45.04
2023-08-05T06:14:29.924Z,45.77
2023-08-05T06:16:57.303Z,45.96
2023-08-05T06:19:24.532Z,46.32
2023-08-05T06:21:52.101Z,45.49
2023-08-05T06:24:19.520Z,44.71
2023-08-05T06:26:46.648Z,44.51
2023-08-05T06:29:13.702Z,44.16
2023-08-05T06:31:40.771Z,44.49
2023-08-05T06:34:07.874Z,45.08
2023-08-05T06:36:34.985Z,45.63
2023-08-05T06:39:04.584Z,44.90
2023-08-05T06:41:31.935Z,45.22
2023-08-05T06:43:59.144Z,45.45
2023-08-05T06:46:26.300Z,45.11
2023-08-05T06:48:53.462Z,44.70
2023-08-05T06:51:20.501Z,43.81
2023-08-05T06:53:47.640Z,43.67
2023-08-05T06:56:14.847Z,43.68
2023-08-05T06:58:41.907Z,43.99
2023-08-05T07:01:09.079Z,43.71
2023-08-05T07:03:36.200Z,44.69
2023-08-05T07:06:03.864Z,44.93
2023-08-05T07:08:31.018Z,44.42
2023-08-05T07:10:59.370Z,44.22
2023-08-05T07:13:27.332Z,44.58
2023-08-05T07:16:04.590Z,43.77
2023-08-05T07:18:31.990Z,42.36
2023-08-05T07:20:59.333Z,41.95
2023-08-05T07:23:26.529Z,41.83
2023-08-05T07:25:53.694Z,41.34
2023-08-05T07:28:20.975Z,41.19
2023-08-05T07:30:48.244Z,41.53
2023-08-05T07:33:15.971Z,41.10
2023-08-05T07:35:43.203Z,40.55
2023-08-05T07:38:10.796Z,41.15
2023-08-05T07:40:42.319Z,41.43
2023-08-05T07:43:10.466Z,41.33
2023-08-05T07:45:37.798Z,41.02
2023-08-05T07:48:09.483Z,40.62
2023-08-05T07:50:36.795Z,40.86
2023-08-05T07:53:05.413Z,40.54
2023-08-05T07:55:35.204Z,39.90
2023-08-05T07:58:06.024Z,40.19
2023-08-05T08:00:34.414Z,40.02
2023-08-05T08:03:01.644Z,40.19
2023-08-05T08:05:28.935Z,40.53
2023-08-05T08:07:57.543Z,40.64
2023-08-05T08:10:26.517Z,39.83
2023-08-05T08:12:54.719Z,39.42
2023-08-05T08:15:22.061Z,38.92
2023-08-05T08:17:49.269Z,38.98
2023-08-05T08:20:16.488Z,39.57
2023-08-05T08:22:43.663Z,38.96
2023-08-05T08:25:11.044Z,38.51
2023-08-05T08:27:38.204Z,38.64
2023-08-05T08:30:06.573Z,38.60
2023-08-05T08:32:33.992Z,38.14
2023-08-05T08:35:01.229Z,38.26
2023-08-05T08:37:31.297Z,38.52
2023-08-05T08:39:58.492Z,38.61
2023-08-05T08:42:27.610Z,38.33
2023-08-05T08:44:55.102Z,38.21
2023-08-05T08:47:24.437Z,37.80
2023-08-05T08:49:56.492Z,37.86
2023-08-05T08:52:25.236Z,37.63
2023-08-05T08:54:53.042Z,37.89
2023-08-05T08:57:20.128Z,37.68
2023-08-05T08:59:48.338Z,37.80
2023-08-05T09:02:25.100Z,38.22
2023-08-05T09:04:56.318Z,37.71
2023-08-05T09:07:27.391Z,37.86
2023-08-05T09:09:54.903Z,37.73
2023-08-05T09:12:22.892Z,38.15
2023-08-05T09:14:56.198Z,37.84
2023-08-05T09:17:28.772Z,38.82
2023-08-05T09:19:56.412Z,38.79
2023-08-05T09:22:29.518Z,38.39
2023-08-05T09:25:03.365Z,38.46
2023-08-05T09:27:50.103Z,38.11
2023-08-05T09:30:24.146Z,38.13
2023-08-05T09:32:53.207Z,38.37
2023-08-05T09:35:21.765Z,39.37
2023-08-05T09:37:53.825Z,39.67
2023-08-05T09:40:25.900Z,39.18
2023-08-05T09:42:58.631Z,38.98
2023-08-05T09:45:29.580Z,38.19
2023-08-05T09:48:05.471Z,38.17
2023-08-05T09:50:33.164Z,38.24
2023-08-05T09:53:01.513Z,38.78
2023-08-05T09:55:29.629Z,39.14
2023-08-05T09:57:57.856Z,38.89
2023-08-05T10:00:25.612Z,39.75
2023-08-05T10:02:53.130Z,39.20
2023-08-05T10:05:26.107Z,39.42
2023-08-05T10:07:56.831Z,39.30
2023-08-05T10:10:24.058Z,39.32
2023-08-05T10:13:01.390Z,39.01
2023-08-05T10:15:39.504Z,38.83
2023-08-05T10:18:11.908Z,38.68
2023-08-05T10:20:40.103Z,38.27
2023-08-05T10:23:11.530Z,38.40
2023-08-05T10:25:47.135Z,38.60
2023-08-05T10:28:29.576Z,38.58
2023-08-05T10:30:57.263Z,38.42
2023-08-05T10:33:26.822Z,37.76
2023-08-05T10:36:07.533Z,37.55
2023-08-05T10:38:44.237Z,37.61
2023-08-05T10:41:15.968Z,38.07
2023-08-05T10:43:43.086Z,38.06
2023-08-05T10:46:13.912Z,37.34
2023-08-05T10:48:48.732Z,37.25
2023-08-05T10:51:18.018Z,36.44
2023-08-05T10:53:52.450Z,36.53
2023-08-05T10:56:20.294Z,36.51
2023-08-05T10:58:50.106Z,37.55
2023-08-05T11:01:19.120Z,37.12
2023-08-05T11:03:53.357Z,36.39
2023-08-05T11:06:25.674Z,36.07
2023-08-05T11:08:53.536Z,36.12
2023-08-05T11:11:20.955Z,35.32
2023-08-05T11:13:49.505Z,35.47
2023-08-05T11:16:18.591Z,35.51
2023-08-05T11:18:48.791Z,34.80
2023-08-05T11:21:16.648Z,35.23
2023-08-05T11:23:46.646Z,35.07
2023-08-05T11:26:14.670Z,35.43
2023-08-05T11:28:46.804Z,35.72
2023-08-05T11:31:32.251Z,35.25
2023-08-05T11:33:59.985Z,35.86
2023-08-05T11:36:29.372Z,35.09
2023-08-05T11:39:01.824Z,35.17
2023-08-05T11:41:29.881Z,34.92
2023-08-05T11:43:57.509Z,34.76
2023-08-05T11:46:33.786Z,34.80
2023-08-05T11:49:10.314Z,35.18
2023-08-05T11:51:52.369Z,35.52
2023-08-05T11:54:30.988Z,35.36
2023-08-05T11:56:58.822Z,35.96
2023-08-05T11:59:49.134Z,36.57
2023-08-05T12:02:19.604Z,36.66
2023-08-05T12:04:51.984Z,36.65
2023-08-05T12:07:21.498Z,36.35
2023-08-05T12:10:15.867Z,36.41
2023-08-05T12:12:48.523Z,36.56
2023-08-05T12:15:18.766Z,36.15
2023-08-05T12:17:51.250Z,35.99
2023-08-05T12:20:28.534Z,36.31
2023-08-05T12:22:58.096Z,36.66
2023-08-05T12:25:26.653Z,36.91
2023-08-05T12:27:53.987Z,37.18
2023-08-05T12:30:21.494Z,37.38
2023-08-05T12:32:48.867Z,37.04
2023-08-05T12:35:16.505Z,37.02
2023-08-05T12:37:43.763Z,37.16
2023-08-05T12:40:12.333Z,37.08
2023-08-05T12:42:40.342Z,38.39
2023-08-05T12:45:10.346Z,38.53
2023-08-05T12:47:40.135Z,38.24
2023-08-05T12:50:08.702Z,38.42
2023-08-05T12:52:36.405Z,38.13
2023-08-05T12:55:04.072Z,38.02
2023-08-05T12:57:33.493Z,38.17
2023-08-05T13:00:01.892Z,38.58
2023-08-05T13:02:29.705Z,39.22
2023-08-05T13:04:57.368Z,39.38
2023-08-05T13:07:24.681Z,39.73
2023-08-05T13:09:51.998Z,39.01
2023-08-05T13:12:19.144Z,39.08
2023-08-05T13:14:46.276Z,39.51
2023-08-05T13:17:14.437Z,39.24
2023-08-05T13:19:43.254Z,39.14
2023-08-05T13:22:10.520Z,39.07
2023-08-05T13:24:37.865Z,39.10
2023-08-05T13:27:05.555Z,39.58
2023-08-05T13:29:32.720Z,39.76
2023-08-05T13:32:00.128Z,39.96
2023-08-05T13:34:28.228Z,39.95
2023-08-05T13:36:55.557Z,39.90
2023-08-05T13:39:27.062Z,39.84
2023-08-05T13:42:03.504Z,40.37
2023-08-05T13:44:33.922Z,40.08
2023-08-05T13:47:03.075Z,40.77
2023-08-05T13:49:30.260Z,41.13
2023-08-05T13:51:57.729Z,41.17
2023-08-05T13:54:25.079Z,41.20
2023-08-05T13:56:52.211Z,41.09
2023-08-05T13:59:19.429Z,41.40
2023-08-05T14:01:47.837Z,40.95
2023-08-05T14:04:15.038Z,40.97
2023-08-05T14:06:42.227Z,40.90
2023-08-05T14:09:09.663Z,40.90
2023-08-05T14:11:37.654Z,41.02
2023-08-05T14:14:04.876Z,41.64
2023-08-05T14:16:32.256Z,41.58
2023-08-05T14:19:01.524Z,41.74
2023-08-05T14:21:28.943Z,41.74
2023-08-05T14:23:56.248Z,41.72
2023-08-05T14:26:23.909Z,41.55
2023-08-05T14:28:51.071Z,41.51
2023-08-05T14:31:18.376Z,41.45
2023-08-05T14:33:45.692Z,41.60
2023-08-05T14:36:14.566Z,41.54
2023-08-05T14:38:41.860Z,41.37
2023-08-05T14:41:17.891Z,41.10
2023-08-05T14:43:46.042Z,40.91
2023-08-05T14:46:13.489Z,40.92
2023-08-05T14:48:40.885Z,41.00
2023-08-05T14:51:08.007Z,40.97
2023-08-05T14:53:35.146Z,41.22
2023-08-05T14:56:02.492Z,41.37
2023-08-05T14:58:29.880Z,41.60
2023-08-05T15:00:57.013Z,41.26
2023-08-05T15:03:24.447Z,41.60
2023-08-05T15:05:55.960Z,41.20
2023-08-05T15:08:25.680Z,41.11
2023-08-05T15:11:01.724Z,41.00
2023-08-05T15:13:29.030Z,40.88
2023-08-05T15:16:02.645Z,41.24
2023-08-05T15:18:33.168Z,41.70
2023-08-05T15:21:03.637Z,41.46
2023-08-05T15:23:32.401Z,41.12
2023-08-05T15:26:02.966Z,41.35
2023-08-05T15:28:30.230Z,40.93
2023-08-05T15:30:57.367Z,41.39
2023-08-05T15:33:24.842Z,41.51
2023-08-05T15:35:52.124Z,41.24
2023-08-05T15:38:19.296Z,41.30
2023-08-05T15:40:46.364Z,41.69
2023-08-05T15:43:15.752Z,41.50
2023-08-05T15:45:57.830Z,41.76
2023-08-05T15:48:25.989Z,42.03
2023-08-05T15:50:54.119Z,42.00
2023-08-05T15:53:21.545Z,42.55
2023-08-05T15:55:48.702Z,42.48
2023-08-05T15:58:15.833Z,42.85
2023-08-05T16:00:43.039Z,42.94
2023-08-05T16:03:10.175Z,43.17
2023-08-05T16:05:37.247Z,43.30
2023-08-05T16:08:04.609Z,43.17
2023-08-05T16:10:31.990Z,42.90
2023-08-05T16:12:59.133Z,42.72
2023-08-05T16:15:26.320Z,42.83
2023-08-05T16:17:53.685Z,42.81
2023-08-05T16:20:24.677Z,42.66
2023-08-05T16:22:54.489Z,43.03
2023-08-05T16:25:21.782Z,42.98
2023-08-05T16:27:49.180Z,43.64
2023-08-05T16:30:16.924Z,43.88
2023-08-05T16:32:44.095Z,43.54
2023-08-05T16:35:11.250Z,43.71
2023-08-05T16:37:39.048Z,44.33
2023-08-05T16:40:07.961Z,44.46
2023-08-05T16:42:35.586Z,44.75
2023-08-05T16:45:02.825Z,44.84
2023-08-05T16:47:30.138Z,44.62
2023-08-05T16:49:57.435Z,45.40
2023-08-05T16:52:24.485Z,45.51
2023-08-05T16:54:51.828Z,45.51
2023-08-05T16:57:18.919Z,45.89
2023-08-05T16:59:46.093Z,46.10
2023-08-05T17:02:13.232Z,46.79
2023-08-05T17:04:40.382Z,47.00
2023-08-05T17:07:07.531Z,47.03
2023-08-05T17:09:34.627Z,47.19
2023-08-05T17:12:01.882Z,47.44
2023-08-05T17:14:28.967Z,47.39
2023-08-05T17:16:56.048Z,47.81
2023-08-05T17:19:23.150Z,47.64
2023-08-05T17:21:50.527Z,47.96
2023-08-05T17:24:17.844Z,48.22
2023-08-05T17:26:44.896Z,48.05
2023-08-05T17:29:14.347Z,48.54
2023-08-05T17:31:41.724Z,48.31
2023-08-05T17:34:09.708Z,48.20
2023-08-05T17:36:36.880Z,48.81
2023-08-05T17:39:04.087Z,49.14
2023-08-05T17:41:31.236Z,49.56
2023-08-05T17:43:58.424Z,49.85
2023-08-05T17:46:25.463Z,49.86
2023-08-05T17:48:52.646Z,50.43
2023-08-05T17:51:19.860Z,50.13
2023-08-05T17:53:46.988Z,50.30
2023-08-05T17:56:14.080Z,50.24
2023-08-05T17:58:41.165Z,50.46
2023-08-05T18:01:08.287Z,50.52
2023-08-05T18:03:35.509Z,51.35
2023-08-05T18:08:32.638Z,51.73
2023-08-05T18:10:59.645Z,50.73
2023-08-05T18:13:26.745Z,51.43
2023-08-05T18:15:53.947Z,51.27
2023-08-05T18:18:21.160Z,51.53
2023-08-05T18:20:48.188Z,51.38
2023-08-05T18:23:15.360Z,51.93
2023-08-05T18:25:42.586Z,52.42
2023-08-05T18:28:11.233Z,51.85
2023-08-05T18:30:38.398Z,51.85
2023-08-05T18:33:05.562Z,51.94
2023-08-05T18:35:32.812Z,52.96
2023-08-05T18:38:00.134Z,53.34
2023-08-05T18:40:27.815Z,53.66
2023-08-05T18:42:55.019Z,54.12
2023-08-05T18:45:22.249Z,54.66
2023-08-05T18:47:49.384Z,53.91
2023-08-05T18:50:16.568Z,54.03
2023-08-05T18:52:44.399Z,54.70
2023-08-05T18:55:11.664Z,55.25
2023-08-05T18:57:38.799Z,55.15
2023-08-05T19:00:07.302Z,55.22
2023-08-05T19:02:34.423Z,55.42
2023-08-05T19:05:01.762Z,56.02
2023-08-05T19:07:29.033Z,56.45
2023-08-05T19:09:56.288Z,56.92
2023-08-05T19:12:23.598Z,57.17
2023-08-05T19:14:50.927Z,57.29
2023-08-05T19:17:18.154Z,57.05
2023-08-05T19:19:45.390Z,57.48
2023-08-05T19:22:14.407Z,57.51
2023-08-05T19:24:41.528Z,57.69
2023-08-05T19:27:08.729Z,58.42
2023-08-05T19:29:35.827Z,58.95
2023-08-05T19:32:03.015Z,58.55
2023-08-05T19:34:30.101Z,58.62
2023-08-05T19:36:57.246Z,58.69
2023-08-05T19:39:24.816Z,58.71
2023-08-05T19:41:52.324Z,59.11
2023-08-05T19:44:19.616Z,58.94
2023-08-05T19:46:46.724Z,59.15
2023-08-05T19:49:16.067Z,59.96
2023-08-05T19:51:43.476Z,59.59
2023-08-05T19:54:10.894Z,59.63
2023-08-05T19:56:37.986Z,59.79
2023-08-05T19:59:05.312Z,59.56
2023-08-05T20:01:32.723Z,60.04
2023-08-05T20:04:00.042Z,60.05
2023-08-05T20:06:27.308Z,60.14
2023-08-05T20:08:54.473Z,59.81
2023-08-05T20:11:21.601Z,59.50
2023-08-05T20:13:48.728Z,60.04
2023-08-05T20:16:16.903Z,59.75
2023-08-05T20:18:45.506Z,59.77
2023-08-05T20:21:12.745Z,60.63
2023-08-05T20:23:39.851Z,60.62
2023-08-05T20:26:11.162Z,61.03
2023-08-05T20:28:38.583Z,60.76
2023-08-05T20:31:05.742Z,60.41
2023-08-05T20:33:33.146Z,60.31
2023-08-05T20:36:01.035Z,60.88
2023-08-05T20:38:28.525Z,61.17
2023-08-05T20:40:55.750Z,60.94
2023-08-05T20:43:22.915Z,61.08
2023-08-05T20:45:53.455Z,60.99
2023-08-05T20:48:20.723Z,61.05
2023-08-05T20:50:48.070Z,61.24
2023-08-05T20:53:15.260Z,61.06
2023-08-05T20:55:42.611Z,60.75
2023-08-05T20:58:09.941Z,60.67
2023-08-05T21:00:37.071Z,60.83
2023-08-05T21:03:05.681Z,61.05
2023-08-05T21:05:32.887Z,61.27
2023-08-05T21:07:59.956Z,61.39
2023-08-05T21:10:27.102Z,61.50
2023-08-05T21:12:54.271Z,61.30
2023-08-05T21:15:21.424Z,61.58
2023-08-05T21:17:49.088Z,61.65
2023-08-05T21:20:16.265Z,61.36
2023-08-05T21:22:43.341Z,61.40
2023-08-05T21:25:10.439Z,61.50
2023-08-05T21:27:37.527Z,61.20
2023-08-05T21:30:05.418Z,60.54
2023-08-05T21:32:32.614Z,60.43
2023-08-05T21:34:59.741Z,60.84
2023-08-05T21:37:27.774Z,60.70
2023-08-05T21:39:55.004Z,60.58
2023-08-05T21:42:22.429Z,60.45
2023-08-05T21:44:49.632Z,60.61
2023-08-05T21:47:16.766Z,60.66
2023-08-05T21:49:43.918Z,60.65
2023-08-05T21:52:11.956Z,60.56
2023-08-05T21:54:39.181Z,60.75
2023-08-05T21:57:07.541Z,60.90
2023-08-05T21:59:34.788Z,61.03
2023-08-05T22:02:02.236Z,61.12
2023-08-05T22:04:29.636Z,61.34
2023-08-05T22:06:56.735Z,61.49
2023-08-05T22:09:23.903Z,61.40
2023-08-05T22:11:51.301Z,61.70
2023-08-05T22:14:18.887Z,61.54
2023-08-05T22:16:45.998Z,61.17
2023-08-05T22:19:13.110Z,61.29
2023-08-05T22:21:40.136Z,61.10
2023-08-05T22:24:07.222Z,61.39
2023-08-05T22:26:34.256Z,61.14
2023-08-05T22:29:01.354Z,61.48
2023-08-05T22:31:28.690Z,61.43
2023-08-05T22:33:55.777Z,61.45
2023-08-05T22:36:22.874Z,61.18
2023-08-05T22:38:49.982Z,61.31
2023-08-05T22:41:17.122Z,62.29
2023-08-05T22:43:44.357Z,62.55
2023-08-05T22:46:11.416Z,62.02
2023-08-05T22:48:38.582Z,62.17
2023-08-05T22:51:08.360Z,62.16
2023-08-05T22:53:35.455Z,62.06
2023-08-05T22:56:03.743Z,61.75
2023-08-05T22:58:30.870Z,61.43
2023-08-05T23:01:05.647Z,61.58
2023-08-05T23:03:32.944Z,61.34
2023-08-05T23:06:00.039Z,62.19
2023-08-05T23:08:27.265Z,61.76
2023-08-05T23:10:54.380Z,61.86
2023-08-05T23:13:21.451Z,61.83
2023-08-05T23:15:48.564Z,61.95
2023-08-05T23:18:15.845Z,62.37
2023-08-05T23:20:43.027Z,62.26
2023-08-05T23:23:10.148Z,61.95
2023-08-05T23:25:38.148Z,62.02
2023-08-05T23:28:05.708Z,62.33
2023-08-05T23:30:33.108Z,62.37
2023-08-05T23:33:00.401Z,62.35
2023-08-05T23:35:27.550Z,61.63
2023-08-05T23:37:54.716Z,61.64
2023-08-05T23:40:21.941Z,62.13
2023-08-05T23:42:49.628Z,62.70
2023-08-05T23:45:16.827Z,63.02
2023-08-05T23:47:43.957Z,63.06
2023-08-05T23:50:11.343Z,63.05
2023-08-05T23:52:38.494Z,62.84
2023-08-05T23:55:06.866Z,62.51
2023-08-05T23:57:33.902Z,62.46
